createdAt,value
2023-01-19T00:01:39.618Z,99416.42
2023-01-19T00:04:07.092Z,99417.66
2023-01-19T00:06:35.098Z,99414.55
2023-01-19T00:09:03.022Z,99400.22
2023-01-19T00:11:31.320Z,99403.54
2023-01-19T00:13:59.011Z,99407.98
2023-01-19T00:16:26.664Z,99411.36
2023-01-19T00:18:55.257Z,99406.88
2023-01-19T00:21:22.741Z,99409.35
2023-01-19T00:23:52.942Z,99418.35
2023-01-19T00:26:21.900Z,99428.77
2023-01-19T00:28:50.103Z,99437.46
2023-01-19T00:31:20.142Z,99441.51
2023-01-19T00:33:48.977Z,99437.27
2023-01-19T00:36:16.471Z,99435.34
2023-01-19T00:38:46.167Z,99428.10
2023-01-19T00:41:14.557Z,99423.93
2023-01-19T00:43:42.167Z,99417.73
2023-01-19T00:46:09.590Z,99410.44
2023-01-19T00:48:37.150Z,99413.52
2023-01-19T00:51:05.041Z,99421.61
2023-01-19T00:53:34.594Z,99423.14
2023-01-19T00:56:02.265Z,99421.52
2023-01-19T00:58:30.020Z,99418.75
2023-01-19T01:01:03.146Z,99412.91
2023-01-19T01:03:31.793Z,99414.70
2023-01-19T01:05:59.507Z,99419.82
2023-01-19T01:08:27.194Z,99421.98
2023-01-19T01:10:55.320Z,99416.71
2023-01-19T01:13:26.159Z,99424.64
2023-01-19T01:15:55.130Z,99427.09
2023-01-19T01:18:23.533Z,99433.23
2023-01-19T01:20:51.042Z,99437.95
2023-01-19T01:23:23.027Z,99452.29
2023-01-19T01:25:50.802Z,99462.40
2023-01-19T01:28:18.720Z,99459.00
2023-01-19T01:30:46.210Z,99449.29
2023-01-19T01:33:14.428Z,99449.21
2023-01-19T01:35:41.911Z,99455.83
2023-01-19T01:38:09.594Z,99457.46
2023-01-19T01:40:40.578Z,99443.62
2023-01-19T01:43:20.399Z,99441.24
2023-01-19T01:45:47.835Z,99448.16
2023-01-19T01:48:23.582Z,99451.23
2023-01-19T01:51:14.003Z,99459.95
2023-01-19T01:53:41.977Z,99472.49
2023-01-19T01:56:11.653Z,99466.59
2023-01-19T01:58:39.954Z,99472.61
2023-01-19T02:01:26.061Z,99473.74
2023-01-19T02:03:57.738Z,99466.09
2023-01-19T02:06:25.665Z,99460.74
2023-01-19T02:09:21.569Z,99451.24
2023-01-19T02:12:07.596Z,99448.27
2023-01-19T02:14:37.080Z,99452.74
2023-01-19T02:17:05.422Z,99455.90
2023-01-19T02:19:40.704Z,99460.77
2023-01-19T02:22:20.065Z,99466.55
2023-01-19T02:24:49.598Z,99479.04
2023-01-19T02:27:17.181Z,99477.27
2023-01-19T02:29:44.862Z,99470.43
2023-01-19T02:32:13.806Z,99475.25
2023-01-19T02:34:41.278Z,99475.70
2023-01-19T02:37:13.132Z,99475.66
2023-01-19T02:39:54.396Z,99486.95
2023-01-19T02:42:34.733Z,99485.53
2023-01-19T02:45:06.818Z,99481.72
2023-01-19T02:47:38.688Z,99478.65
2023-01-19T02:50:06.545Z,99483.95
2023-01-19T02:52:34.543Z,99484.59
2023-01-19T02:55:11.493Z,99470.98
2023-01-19T02:57:57.454Z,99463.42
2023-01-19T03:00:43.170Z,99455.83
2023-01-19T03:03:35.337Z,99448.11
2023-01-19T03:06:09.790Z,99431.24
2023-01-19T03:08:38.579Z,99435.35
2023-01-19T03:11:11.131Z,99455.83
2023-01-19T03:13:57.536Z,99478.09
2023-01-19T03:16:51.006Z,99466.17
2023-01-19T03:19:39.349Z,99479.73
2023-01-19T03:22:17.309Z,99478.79
2023-01-19T03:24:46.059Z,99467.38
2023-01-19T03:27:19.804Z,99469.65
2023-01-19T03:29:50.713Z,99465.48
2023-01-19T03:32:19.628Z,99471.77
2023-01-19T03:34:47.078Z,99475.89
2023-01-19T03:37:15.231Z,99480.48
2023-01-19T03:39:42.736Z,99481.14
2023-01-19T03:42:14.271Z,99488.38
2023-01-19T07:41:55.386Z,99457.41
2023-01-19T07:44:27.742Z,99453.80
2023-01-19T07:46:55.443Z,99452.96
2023-01-19T07:49:23.180Z,99453.10
2023-01-19T07:51:50.477Z,99453.55
2023-01-19T07:54:18.202Z,99448.33
2023-01-19T07:56:45.743Z,99447.10
2023-01-19T07:59:13.177Z,99446.08
2023-01-19T08:01:40.875Z,99453.52
2023-01-19T08:04:10.293Z,99454.81
2023-01-19T08:06:38.376Z,99447.02
2023-01-19T08:09:06.679Z,99443.94
2023-01-19T08:11:34.138Z,99435.34
2023-01-19T08:14:02.255Z,99433.41
2023-01-19T08:16:29.714Z,99447.55
2023-01-19T08:18:56.980Z,99438.08
2023-01-19T08:21:24.429Z,99437.83
2023-01-19T08:23:55.479Z,99443.05
2023-01-19T08:26:31.308Z,99455.55
2023-01-19T08:29:00.402Z,99467.97
2023-01-19T08:31:29.984Z,99463.41
2023-01-19T08:33:57.962Z,99470.28
2023-01-19T08:36:25.416Z,99470.61
2023-01-19T08:38:52.789Z,99473.14
2023-01-19T08:41:20.261Z,99478.00
2023-01-19T08:43:48.894Z,99470.96
2023-01-19T08:46:21.540Z,99471.08
2023-01-19T08:48:49.973Z,99459.34
2023-01-19T08:51:18.019Z,99459.43
2023-01-19T08:53:46.514Z,99456.42
2023-01-19T08:56:14.085Z,99461.70
2023-01-19T08:58:42.866Z,99461.54
2023-01-19T09:01:14.408Z,99464.42
2023-01-19T09:03:42.661Z,99465.17
2023-01-19T09:06:11.808Z,99455.67
2023-01-19T09:08:39.192Z,99444.60
2023-01-19T09:11:10.992Z,99442.16
2023-01-19T09:13:39.223Z,99446.86
2023-01-19T09:16:09.207Z,99450.98
2023-01-19T09:18:37.195Z,99441.79
2023-01-19T09:21:05.215Z,99433.02
2023-01-19T09:23:35.152Z,99436.23
2023-01-19T09:26:03.753Z,99439.17
2023-01-19T09:28:31.351Z,99438.96
2023-01-19T09:30:59.131Z,99447.23
2023-01-19T09:33:26.543Z,99442.25
2023-01-19T09:35:54.309Z,99434.48
2023-01-19T09:38:22.962Z,99424.62
2023-01-19T09:40:53.436Z,99421.23
2023-01-19T09:43:26.443Z,99418.00
2023-01-19T09:45:53.803Z,99415.93
2023-01-19T09:48:32.405Z,99411.79
2023-01-19T09:51:02.737Z,99407.77
2023-01-19T09:53:50.186Z,99407.40
2023-01-19T09:56:19.992Z,99400.91
2023-01-19T09:58:48.534Z,99397.67
2023-01-19T10:01:30.452Z,99388.04
2023-01-19T10:04:31.089Z,99383.30
2023-01-19T10:07:22.247Z,99377.21
2023-01-19T10:10:01.448Z,99369.45
2023-01-19T10:12:37.729Z,99371.78
2023-01-19T10:15:28.610Z,99371.39
2023-01-19T10:18:11.773Z,99369.66
2023-01-19T10:20:43.754Z,99361.60
2023-01-19T10:23:38.659Z,99354.61
2023-01-19T10:26:25.862Z,99343.30
2023-01-19T10:28:55.718Z,99341.15
2023-01-19T10:31:23.907Z,99336.63
2023-01-19T10:33:52.353Z,99334.31
2023-01-19T10:36:28.850Z,99328.40
2023-01-19T10:38:56.224Z,99325.56
2023-01-19T10:41:41.383Z,99322.06
2023-01-19T10:44:10.496Z,99323.71
2023-01-19T10:46:47.832Z,99318.02
2023-01-19T10:49:35.394Z,99320.66
2023-01-19T10:52:03.229Z,99316.44
2023-01-19T10:54:31.338Z,99314.63
2023-01-19T10:57:02.461Z,99302.25
2023-01-19T10:59:34.948Z,99294.40
2023-01-19T11:02:18.296Z,99293.61
2023-01-19T11:04:50.108Z,99281.23
2023-01-19T11:07:24.003Z,99281.61
2023-01-19T11:10:17.118Z,99294.20
2023-01-19T11:12:57.026Z,99291.52
2023-01-19T11:15:28.559Z,99287.29
2023-01-19T11:17:55.929Z,99285.02
2023-01-19T11:20:47.534Z,99277.92
2023-01-19T11:23:41.763Z,99278.98
2023-01-19T11:26:15.415Z,99276.56
2023-01-19T11:28:46.054Z,99267.66
2023-01-19T11:31:13.456Z,99265.76
2023-01-19T11:33:48.401Z,99263.35
2023-01-19T11:36:17.160Z,99259.45
2023-01-19T11:38:45.546Z,99255.19
2023-01-19T11:41:36.178Z,99250.75
2023-01-19T11:44:32.720Z,99245.27
2023-01-19T11:47:02.311Z,99239.48
2023-01-19T11:49:38.133Z,99240.75
2023-01-19T11:52:09.957Z,99240.02
2023-01-19T11:54:40.478Z,99249.16
2023-01-19T11:57:12.362Z,99243.85
2023-01-19T11:59:39.869Z,99243.67
2023-01-19T12:02:18.744Z,99243.18
2023-01-19T12:04:46.417Z,99242.27
2023-01-19T12:07:14.059Z,99239.68
2023-01-19T12:09:46.006Z,99239.80
2023-01-19T12:12:25.828Z,99243.31
2023-01-19T12:15:20.819Z,99247.70
2023-01-19T12:17:53.194Z,99256.97
2023-01-19T12:20:31.059Z,99258.70
2023-01-19T12:23:21.600Z,99258.98
2023-01-19T12:25:55.330Z,99257.09
2023-01-19T12:28:26.461Z,99256.70
2023-01-19T12:30:56.095Z,99258.63
2023-01-19T12:33:38.783Z,99259.23
2023-01-19T12:36:10.606Z,99257.73
2023-01-19T12:38:53.566Z,99250.46
2023-01-19T12:41:25.157Z,99248.64
2023-01-19T12:44:11.357Z,99242.13
2023-01-19T12:46:42.399Z,99250.74
2023-01-19T12:49:21.771Z,99251.45
2023-01-19T12:51:49.775Z,99257.66
2023-01-19T12:54:31.171Z,99259.27
2023-01-19T12:57:01.268Z,99261.22
2023-01-19T12:59:35.983Z,99269.23
2023-01-19T13:02:22.859Z,99272.83
2023-01-19T13:05:06.384Z,99274.64
2023-01-19T13:08:01.538Z,99274.05
2023-01-19T13:11:15.329Z,99269.58
2023-01-19T13:13:44.255Z,99272.88
2023-01-19T13:16:17.959Z,99278.55
2023-01-19T13:18:48.194Z,99277.91
2023-01-19T13:21:46.500Z,99274.16
2023-01-19T13:24:14.894Z,99271.59
2023-01-19T16:07:16.895Z,99303.66
2023-01-19T16:09:44.644Z,99310.36
2023-01-19T16:12:12.344Z,99310.52
2023-01-19T16:14:40.039Z,99308.33
2023-01-19T16:17:07.541Z,99309.45
2023-01-19T16:19:34.932Z,99316.55
2023-01-19T16:22:02.948Z,99318.28
2023-01-19T16:24:30.532Z,99323.17
2023-01-19T16:26:58.105Z,99320.20
2023-01-19T16:29:26.009Z,99313.84
2023-01-19T16:31:53.602Z,99314.41
2023-01-19T16:34:22.328Z,99311.67
2023-01-19T16:36:50.126Z,99314.89
2023-01-19T16:39:17.807Z,99319.10
2023-01-19T16:41:45.609Z,99319.59
2023-01-19T16:44:14.085Z,99318.94
2023-01-19T16:46:43.807Z,99314.50
2023-01-19T16:49:15.047Z,99315.37
2023-01-19T16:51:45.592Z,99313.45
2023-01-19T16:54:18.012Z,99317.02
2023-01-19T16:56:45.516Z,99320.79
2023-01-19T16:59:15.596Z,99320.13
2023-01-19T17:01:45.767Z,99321.11
2023-01-19T17:04:13.851Z,99319.09
2023-01-19T17:06:42.361Z,99319.57
2023-01-19T17:09:09.970Z,99320.30
2023-01-19T17:11:40.010Z,99319.58
2023-01-19T17:14:14.026Z,99315.96
2023-01-19T17:16:41.592Z,99311.48
2023-01-19T17:19:12.684Z,99315.54
2023-01-19T17:21:40.208Z,99314.60
2023-01-19T17:24:07.599Z,99313.87
2023-01-19T17:26:35.010Z,99311.56
2023-01-19T17:29:04.988Z,99317.95
2023-01-19T17:31:34.189Z,99318.36
2023-01-19T17:34:02.047Z,99316.01
2023-01-19T17:36:30.956Z,99315.29
2023-01-19T17:38:59.672Z,99322.40
2023-01-19T17:41:31.578Z,99320.61
2023-01-19T17:43:59.578Z,99318.61
2023-01-19T17:46:28.172Z,99318.61
2023-01-19T17:48:59.934Z,99319.23
2023-01-19T17:51:27.507Z,99317.02
2023-01-19T17:53:55.307Z,99315.88
2023-01-19T17:56:29.877Z,99314.63
